sensor_id;sensor_type;location;lat;lon;timestamp;temperature;humidity
21805;DHT22;11064;47.102;15.452;2023-02-03T05:03:12;0.50;99.90
21805;DHT22;11064;47.102;15.452;2023-02-03T05:05:38;0.40;99.90
21805;DHT22;11064;47.102;15.452;2023-02-03T05:08:04;0.40;99.90
21805;DHT22;11064;47.102;15.452;2023-02-03T05:10:30;0.40;99.90
21805;DHT22;11064;47.102;15.452;2023-02-03T05:12:56;0.40;99.90
21805;DHT22;11064;47.102;15.452;2023-02-03T05:15:22;0.40;99.90
21805;DHT22;11064;47.102;15.452;2023-02-03T05:17:51;0.50;99.90
21805;DHT22;11064;47.102;15.452;2023-02-03T05:20:17;0.40;99.90
21805;DHT22;11064;47.102;15.452;2023-02-03T05:22:43;0.40;99.90
21805;DHT22;11064;47.102;15.452;2023-02-03T05:25:09;0.40;99.90
21805;DHT22;11064;47.102;15.452;2023-02-03T05:27:37;0.40;99.90
21805;DHT22;11064;47.102;15.452;2023-02-03T05:30:05;0.40;99.90
21805;DHT22;11064;47.102;15.452;2023-02-03T05:32:31;0.40;99.90
21805;DHT22;11064;47.102;15.452;2023-02-03T05:34:57;0.30;99.90
21805;DHT22;11064;47.102;15.452;2023-02-03T05:37:24;0.20;99.90
21805;DHT22;11064;47.102;15.452;2023-02-03T05:39:50;0.30;99.90
21805;DHT22;11064;47.102;15.452;2023-02-03T05:42:15;0.50;99.90
21805;DHT22;11064;47.102;15.452;2023-02-03T05:44:41;0.50;99.90
21805;DHT22;11064;47.102;15.452;2023-02-03T05:47:07;0.60;99.90
21805;DHT22;11064;47.102;15.452;2023-02-03T05:49:33;0.60;99.90
21805;DHT22;11064;47.102;15.452;2023-02-03T05:51:59;0.60;99.90
21805;DHT22;11064;47.102;15.452;2023-02-03T05:54:25;0.60;99.90
21805;DHT22;11064;47.102;15.452;2023-02-03T05:56:51;0.70;99.90
21805;DHT22;11064;47.102;15.452;2023-02-03T05:59:17;0.80;99.90
21805;DHT22;11064;47.102;15.452;2023-02-03T06:01:43;0.80;99.90
21805;DHT22;11064;47.102;15.452;2023-02-03T06:04:09;0.80;99.90
21805;DHT22;11064;47.102;15.452;2023-02-03T06:06:35;0.90;99.90
21805;DHT22;11064;47.102;15.452;2023-02-03T06:09:06;0.90;99.90
21805;DHT22;11064;47.102;15.452;2023-02-03T06:11:32;1.00;99.90
21805;DHT22;11064;47.102;15.452;2023-02-03T06:14:00;1.00;99.90
21805;DHT22;11064;47.102;15.452;2023-02-03T06:16:27;1.10;99.90
21805;DHT22;11064;47.102;15.452;2023-02-03T06:18:55;1.10;99.90
21805;DHT22;11064;47.102;15.452;2023-02-03T06:21:25;1.20;99.90
21805;DHT22;11064;47.102;15.452;2023-02-03T06:23:51;1.20;99.90
21805;DHT22;11064;47.102;15.452;2023-02-03T06:26:17;1.20;99.90
21805;DHT22;11064;47.102;15.452;2023-02-03T06:28:43;1.20;99.90
21805;DHT22;11064;47.102;15.452;2023-02-03T06:31:09;1.20;99.90
21805;DHT22;11064;47.102;15.452;2023-02-03T06:33:35;1.10;99.90
21805;DHT22;11064;47.102;15.452;2023-02-03T06:36:00;1.10;99.90
21805;DHT22;11064;47.102;15.452;2023-02-03T06:38:26;1.10;99.90
21805;DHT22;11064;47.102;15.452;2023-02-03T06:40:52;1.00;99.90
21805;DHT22;11064;47.102;15.452;2023-02-03T06:43:18;1.00;99.90
21805;DHT22;11064;47.102;15.452;2023-02-03T06:45:45;1.00;99.90
21805;DHT22;11064;47.102;15.452;2023-02-03T06:48:14;1.00;99.90
21805;DHT22;11064;47.102;15.452;2023-02-03T06:50:40;1.00;99.90
21805;DHT22;11064;47.102;15.452;2023-02-03T06:53:06;1.00;99.90
21805;DHT22;11064;47.102;15.452;2023-02-03T06:55:32;1.00;99.90
21805;DHT22;11064;47.102;15.452;2023-02-03T06:57:57;0.90;99.90
21805;DHT22;11064;47.102;15.452;2023-02-03T07:00:23;0.80;99.90
21805;DHT22;11064;47.102;15.452;2023-02-03T07:02:54;0.80;99.90
21805;DHT22;11064;47.102;15.452;2023-02-03T07:05:20;0.60;99.90
21805;DHT22;11064;47.102;15.452;2023-02-03T07:07:46;0.60;99.90
21805;DHT22;11064;47.102;15.452;2023-02-03T07:10:12;0.60;99.90
21805;DHT22;11064;47.102;15.452;2023-02-03T07:12:38;0.70;99.90
21805;DHT22;11064;47.102;15.452;2023-02-03T07:15:04;0.70;99.90
21805;DHT22;11064;47.102;15.452;2023-02-03T07:17:30;0.70;99.90
21805;DHT22;11064;47.102;15.452;2023-02-03T07:19:56;0.70;99.90
21805;DHT22;11064;47.102;15.452;2023-02-03T07:22:22;0.60;99.90
21805;DHT22;11064;47.102;15.452;2023-02-03T07:24:48;0.60;99.90
21805;DHT22;11064;47.102;15.452;2023-02-03T07:27:14;0.50;99.90
21805;DHT22;11064;47.102;15.452;2023-02-03T07:29:39;0.40;99.90
21805;DHT22;11064;47.102;15.452;2023-02-03T07:32:05;0.40;99.90
21805;DHT22;11064;47.102;15.452;2023-02-03T07:34:31;0.50;99.90
21805;DHT22;11064;47.102;15.452;2023-02-03T07:36:57;0.50;99.90
21805;DHT22;11064;47.102;15.452;2023-02-03T07:39:23;0.60;99.90
21805;DHT22;11064;47.102;15.452;2023-02-03T07:41:49;0.70;99.90
21805;DHT22;11064;47.102;15.452;2023-02-03T07:44:14;0.70;99.90
21805;DHT22;11064;47.102;15.452;2023-02-03T07:46:40;0.80;99.90
21805;DHT22;11064;47.102;15.452;2023-02-03T07:49:12;0.80;99.90
21805;DHT22;11064;47.102;15.452;2023-02-03T07:51:39;0.80;99.90
21805;DHT22;11064;47.102;15.452;2023-02-03T07:54:05;0.80;99.90
21805;DHT22;11064;47.102;15.452;2023-02-03T07:56:31;0.80;99.90
21805;DHT22;11064;47.102;15.452;2023-02-03T07:58:58;0.70;99.90
21805;DHT22;11064;47.102;15.452;2023-02-03T08:01:24;0.70;99.90
21805;DHT22;11064;47.102;15.452;2023-02-03T08:03:51;0.80;99.90
21805;DHT22;11064;47.102;15.452;2023-02-03T08:06:17;0.80;99.90
21805;DHT22;11064;47.102;15.452;2023-02-03T08:08:43;0.90;99.90
21805;DHT22;11064;47.102;15.452;2023-02-03T08:11:09;1.00;99.90
21805;DHT22;11064;47.102;15.452;2023-02-03T08:13:36;1.00;99.90
21805;DHT22;11064;47.102;15.452;2023-02-03T08:16:01;1.20;99.90
21805;DHT22;11064;47.102;15.452;2023-02-03T08:18:27;1.40;99.90
21805;DHT22;11064;47.102;15.452;2023-02-03T08:20:53;1.60;99.90
21805;DHT22;11064;47.102;15.452;2023-02-03T08:23:19;1.70;99.90
21805;DHT22;11064;47.102;15.452;2023-02-03T08:25:50;1.80;99.90
21805;DHT22;11064;47.102;15.452;2023-02-03T08:28:16;1.70;99.90
21805;DHT22;11064;47.102;15.452;2023-02-03T08:30:42;1.80;99.90
21805;DHT22;11064;47.102;15.452;2023-02-03T08:33:07;1.70;99.90
21805;DHT22;11064;47.102;15.452;2023-02-03T08:35:33;1.70;99.90
21805;DHT22;11064;47.102;15.452;2023-02-03T08:37:59;1.60;99.90
21805;DHT22;11064;47.102;15.452;2023-02-03T08:40:25;1.70;99.90
21805;DHT22;11064;47.102;15.452;2023-02-03T08:42:51;1.80;99.90
21805;DHT22;11064;47.102;15.452;2023-02-03T08:45:17;1.80;99.90
21805;DHT22;11064;47.102;15.452;2023-02-03T08:47:42;2.00;99.90
21805;DHT22;11064;47.102;15.452;2023-02-03T08:50:09;2.00;99.90
21805;DHT22;11064;47.102;15.452;2023-02-03T08:52:35;2.20;99.90
21805;DHT22;11064;47.102;15.452;2023-02-03T08:55:01;2.20;99.90
21805;DHT22;11064;47.102;15.452;2023-02-03T08:57:30;2.40;99.90
21805;DHT22;11064;47.102;15.452;2023-02-03T08:59:56;2.50;99.90
21805;DHT22;11064;47.102;15.452;2023-02-03T09:02:21;2.80;99.90
21805;DHT22;11064;47.102;15.452;2023-02-03T09:04:47;3.10;99.90
21805;DHT22;11064;47.102;15.452;2023-02-03T09:07:14;3.30;99.90
21805;DHT22;11064;47.102;15.452;2023-02-03T09:09:41;3.40;99.90
21805;DHT22;11064;47.102;15.452;2023-02-03T09:12:08;3.30;99.90
21805;DHT22;11064;47.102;15.452;2023-02-03T09:14:36;3.10;99.90
21805;DHT22;11064;47.102;15.452;2023-02-03T09:17:03;3.00;99.90
21805;DHT22;11064;47.102;15.452;2023-02-03T09:19:30;2.90;99.90
21805;DHT22;11064;47.102;15.452;2023-02-03T09:21:56;3.00;99.90
21805;DHT22;11064;47.102;15.452;2023-02-03T09:24:22;3.20;99.90
21805;DHT22;11064;47.102;15.452;2023-02-03T09:26:48;3.50;99.90
21805;DHT22;11064;47.102;15.452;2023-02-03T09:29:14;3.70;99.90
21805;DHT22;11064;47.102;15.452;2023-02-03T09:31:40;3.90;99.90
21805;DHT22;11064;47.102;15.452;2023-02-03T09:34:06;4.10;99.90
21805;DHT22;11064;47.102;15.452;2023-02-03T09:36:32;4.00;99.90
21805;DHT22;11064;47.102;15.452;2023-02-03T09:38:59;4.00;99.90
21805;DHT22;11064;47.102;15.452;2023-02-03T09:41:35;4.20;99.90
21805;DHT22;11064;47.102;15.452;2023-02-03T09:44:07;4.40;99.90
21805;DHT22;11064;47.102;15.452;2023-02-03T09:46:42;4.50;99.90
21805;DHT22;11064;47.102;15.452;2023-02-03T09:49:24;4.40;99.90
21805;DHT22;11064;47.102;15.452;2023-02-03T09:52:02;4.40;99.90
21805;DHT22;11064;47.102;15.452;2023-02-03T09:55:00;4.60;99.90
21805;DHT22;11064;47.102;15.452;2023-02-03T09:57:29;4.50;99.90
21805;DHT22;11064;47.102;15.452;2023-02-03T09:59:58;4.50;99.90
21805;DHT22;11064;47.102;15.452;2023-02-03T10:14:37;4.70;99.90
21805;DHT22;11064;47.102;15.452;2023-02-03T10:17:11;4.80;99.90
21805;DHT22;11064;47.102;15.452;2023-02-03T10:19:54;4.70;99.90
21805;DHT22;11064;47.102;15.452;2023-02-03T10:22:24;4.90;99.90
21805;DHT22;11064;47.102;15.452;2023-02-03T10:25:02;5.10;99.90
21805;DHT22;11064;47.102;15.452;2023-02-03T10:27:31;5.10;99.90
21805;DHT22;11064;47.102;15.452;2023-02-03T10:30:19;5.20;99.90
21805;DHT22;11064;47.102;15.452;2023-02-03T10:35:53;5.20;99.90
21805;DHT22;11064;47.102;15.452;2023-02-03T10:41:02;5.30;99.90
21805;DHT22;11064;47.102;15.452;2023-02-03T10:43:29;5.50;99.90
21805;DHT22;11064;47.102;15.452;2023-02-03T10:46:17;5.70;99.90
21805;DHT22;11064;47.102;15.452;2023-02-03T10:48:43;5.90;99.90
21805;DHT22;11064;47.102;15.452;2023-02-03T10:51:21;6.10;99.90
21805;DHT22;11064;47.102;15.452;2023-02-03T10:53:47;6.10;99.90
21805;DHT22;11064;47.102;15.452;2023-02-03T10:56:22;6.20;99.90
21805;DHT22;11064;47.102;15.452;2023-02-03T10:58:55;6.40;99.90
21805;DHT22;11064;47.102;15.452;2023-02-03T11:01:26;6.30;99.90
21805;DHT22;11064;47.102;15.452;2023-02-03T11:03:59;6.60;99.90
21805;DHT22;11064;47.102;15.452;2023-02-03T11:06:26;6.70;99.90
21805;DHT22;11064;47.102;15.452;2023-02-03T11:08:53;6.90;99.90
21805;DHT22;11064;47.102;15.452;2023-02-03T11:11:30;6.90;99.90
21805;DHT22;11064;47.102;15.452;2023-02-03T11:16:33;7.10;99.90
21805;DHT22;11064;47.102;15.452;2023-02-03T11:19:17;7.20;99.90
21805;DHT22;11064;47.102;15.452;2023-02-03T11:21:51;7.30;99.90
21805;DHT22;11064;47.102;15.452;2023-02-03T11:24:23;7.20;99.90
21805;DHT22;11064;47.102;15.452;2023-02-03T11:26:55;7.00;99.90
21805;DHT22;11064;47.102;15.452;2023-02-03T11:29:33;7.10;99.90
21805;DHT22;11064;47.102;15.452;2023-02-03T11:34:45;7.70;99.90
21805;DHT22;11064;47.102;15.452;2023-02-03T11:37:31;7.80;99.90
21805;DHT22;11064;47.102;15.452;2023-02-03T11:42:38;8.30;99.90
21805;DHT22;11064;47.102;15.452;2023-02-03T11:45:33;8.00;99.90
21805;DHT22;11064;47.102;15.452;2023-02-03T11:56:49;7.80;99.90
21805;DHT22;11064;47.102;15.452;2023-02-03T12:03:23;8.40;99.90
21805;DHT22;11064;47.102;15.452;2023-02-03T12:13:26;9.10;99.90
21805;DHT22;11064;47.102;15.452;2023-02-03T12:16:01;9.10;99.90
21805;DHT22;11064;47.102;15.452;2023-02-03T12:19:22;9.00;99.90
21805;DHT22;11064;47.102;15.452;2023-02-03T12:22:38;8.90;99.90
21805;DHT22;11064;47.102;15.452;2023-02-03T12:30:47;8.80;99.90
21805;DHT22;11064;47.102;15.452;2023-02-03T12:38:44;8.90;99.90
21805;DHT22;11064;47.102;15.452;2023-02-03T12:41:16;8.90;99.90
21805;DHT22;11064;47.102;15.452;2023-02-03T12:43:43;9.40;99.90
21805;DHT22;11064;47.102;15.452;2023-02-03T12:46:18;9.60;99.90
21805;DHT22;11064;47.102;15.452;2023-02-03T12:49:01;9.60;99.90
21805;DHT22;11064;47.102;15.452;2023-02-03T12:54:36;9.20;99.90
21805;DHT22;11064;47.102;15.452;2023-02-03T12:57:40;8.90;99.90
21805;DHT22;11064;47.102;15.452;2023-02-03T13:00:24;8.70;99.90
21805;DHT22;11064;47.102;15.452;2023-02-03T13:06:15;9.10;99.90
21805;DHT22;11064;47.102;15.452;2023-02-03T13:08:35;9.40;99.90
21805;DHT22;11064;47.102;15.452;2023-02-03T13:13:53;9.50;99.90
21805;DHT22;11064;47.102;15.452;2023-02-03T13:16:25;9.50;99.90
21805;DHT22;11064;47.102;15.452;2023-02-03T13:19:01;9.40;99.90
21805;DHT22;11064;47.102;15.452;2023-02-03T13:21:28;9.10;99.90
21805;DHT22;11064;47.102;15.452;2023-02-03T13:23:54;9.10;99.90
21805;DHT22;11064;47.102;15.452;2023-02-03T13:26:27;8.80;99.90
21805;DHT22;11064;47.102;15.452;2023-02-03T13:29:17;8.80;99.90
21805;DHT22;11064;47.102;15.452;2023-02-03T13:34:50;8.70;99.90
21805;DHT22;11064;47.102;15.452;2023-02-03T13:41:09;8.30;99.90
21805;DHT22;11064;47.102;15.452;2023-02-03T13:43:21;8.00;99.90
21805;DHT22;11064;47.102;15.452;2023-02-03T13:45:51;8.00;99.90
21805;DHT22;11064;47.102;15.452;2023-02-03T13:48:26;7.80;99.90
21805;DHT22;11064;47.102;15.452;2023-02-03T13:51:17;7.50;99.90
21805;DHT22;11064;47.102;15.452;2023-02-03T13:53:46;7.40;99.90
21805;DHT22;11064;47.102;15.452;2023-02-03T13:56:22;7.60;99.90
21805;DHT22;11064;47.102;15.452;2023-02-03T14:01:42;7.80;99.90
21805;DHT22;11064;47.102;15.452;2023-02-03T14:15:30;7.60;99.90
21805;DHT22;11064;47.102;15.452;2023-02-03T14:19:59;7.50;99.90
21805;DHT22;11064;47.102;15.452;2023-02-03T14:22:25;7.50;99.90
21805;DHT22;11064;47.102;15.452;2023-02-03T14:24:53;7.50;99.90
21805;DHT22;11064;47.102;15.452;2023-02-03T14:27:26;7.50;99.90
21805;DHT22;11064;47.102;15.452;2023-02-03T14:30:13;7.40;99.90
21805;DHT22;11064;47.102;15.452;2023-02-03T14:32:55;7.30;99.90
21805;DHT22;11064;47.102;15.452;2023-02-03T14:35:36;7.10;99.90
21805;DHT22;11064;47.102;15.452;2023-02-03T14:38:10;7.00;99.90
21805;DHT22;11064;47.102;15.452;2023-02-03T14:41:01;6.90;99.90
21805;DHT22;11064;47.102;15.452;2023-02-03T14:43:38;6.80;99.90
21805;DHT22;11064;47.102;15.452;2023-02-03T14:46:26;6.80;99.90
21805;DHT22;11064;47.102;15.452;2023-02-03T14:49:14;6.50;99.90
21805;DHT22;11064;47.102;15.452;2023-02-03T14:57:48;6.20;99.90
21805;DHT22;11064;47.102;15.452;2023-02-03T15:05:49;5.90;99.90
21805;DHT22;11064;47.102;15.452;2023-02-03T15:08:39;5.90;99.90
21805;DHT22;11064;47.102;15.452;2023-02-03T15:11:31;5.90;99.90
21805;DHT22;11064;47.102;15.452;2023-02-03T15:14:33;5.90;99.90
21805;DHT22;11064;47.102;15.452;2023-02-03T15:17:02;5.90;99.90
21805;DHT22;11064;47.102;15.452;2023-02-03T15:19:33;5.90;99.90
21805;DHT22;11064;47.102;15.452;2023-02-03T15:22:01;6.00;99.90
21805;DHT22;11064;47.102;15.452;2023-02-03T15:24:34;6.00;99.90
21805;DHT22;11064;47.102;15.452;2023-02-03T15:27:01;6.00;99.90
21805;DHT22;11064;47.102;15.452;2023-02-03T15:29:32;6.00;99.90
21805;DHT22;11064;47.102;15.452;2023-02-03T15:32:12;6.10;99.90
21805;DHT22;11064;47.102;15.452;2023-02-03T15:34:44;6.10;99.90
21805;DHT22;11064;47.102;15.452;2023-02-03T15:37:17;6.10;99.90
21805;DHT22;11064;47.102;15.452;2023-02-03T15:39:59;6.20;99.90
21805;DHT22;11064;47.102;15.452;2023-02-03T15:42:42;6.40;99.90
21805;DHT22;11064;47.102;15.452;2023-02-03T15:51:01;6.90;99.90
21805;DHT22;11064;47.102;15.452;2023-02-03T15:53:43;6.90;99.90
21805;DHT22;11064;47.102;15.452;2023-02-03T15:56:34;6.90;99.90
21805;DHT22;11064;47.102;15.452;2023-02-03T15:59:03;6.90;99.90
21805;DHT22;11064;47.102;15.452;2023-02-03T16:01:30;7.00;99.90
21805;DHT22;11064;47.102;15.452;2023-02-03T16:03:58;7.00;99.90
21805;DHT22;11064;47.102;15.452;2023-02-03T16:06:32;7.20;99.90
21805;DHT22;11064;47.102;15.452;2023-02-03T16:09:05;7.30;99.90
21805;DHT22;11064;47.102;15.452;2023-02-03T16:11:33;7.30;99.90
21805;DHT22;11064;47.102;15.452;2023-02-03T16:14:02;7.40;99.90
21805;DHT22;11064;47.102;15.452;2023-02-03T16:16:35;7.40;99.90
21805;DHT22;11064;47.102;15.452;2023-02-03T16:19:14;7.50;99.90
21805;DHT22;11064;47.102;15.452;2023-02-03T16:21:54;7.50;99.90
21805;DHT22;11064;47.102;15.452;2023-02-03T16:24:38;7.50;99.90
21805;DHT22;11064;47.102;15.452;2023-02-03T16:35:44;6.80;99.90
21805;DHT22;11064;47.102;15.452;2023-02-03T16:38:29;6.50;99.90
21805;DHT22;11064;47.102;15.452;2023-02-03T16:41:16;6.20;99.90
21805;DHT22;11064;47.102;15.452;2023-02-03T16:44:00;5.90;99.90
21805;DHT22;11064;47.102;15.452;2023-02-03T16:46:46;5.90;99.90
21805;DHT22;11064;47.102;15.452;2023-02-03T16:49:31;5.80;99.90
21805;DHT22;11064;47.102;15.452;2023-02-03T16:52:15;5.70;99.90
21805;DHT22;11064;47.102;15.452;2023-02-03T16:54:41;5.80;99.90
21805;DHT22;11064;47.102;15.452;2023-02-03T16:57:07;5.90;99.90
21805;DHT22;11064;47.102;15.452;2023-02-03T16:59:33;5.90;99.90
21805;DHT22;11064;47.102;15.452;2023-02-03T17:01:59;5.80;99.90
21805;DHT22;11064;47.102;15.452;2023-02-03T17:04:25;5.90;99.90
21805;DHT22;11064;47.102;15.452;2023-02-03T17:06:51;5.90;99.90
21805;DHT22;11064;47.102;15.452;2023-02-03T17:09:17;6.00;99.90
21805;DHT22;11064;47.102;15.452;2023-02-03T17:11:51;6.00;99.90
21805;DHT22;11064;47.102;15.452;2023-02-03T17:14:16;6.00;99.90
21805;DHT22;11064;47.102;15.452;2023-02-03T17:16:43;6.00;99.90
21805;DHT22;11064;47.102;15.452;2023-02-03T17:19:12;6.00;99.90
21805;DHT22;11064;47.102;15.452;2023-02-03T17:21:39;5.90;99.90
21805;DHT22;11064;47.102;15.452;2023-02-03T17:24:05;5.70;99.90
21805;DHT22;11064;47.102;15.452;2023-02-03T17:26:31;5.80;99.90
21805;DHT22;11064;47.102;15.452;2023-02-03T17:28:59;5.70;99.90
21805;DHT22;11064;47.102;15.452;2023-02-03T17:31:28;5.60;99.90
21805;DHT22;11064;47.102;15.452;2023-02-03T17:33:55;5.60;99.90
21805;DHT22;11064;47.102;15.452;2023-02-03T17:36:22;5.50;99.90
21805;DHT22;11064;47.102;15.452;2023-02-03T17:38:55;5.40;99.90
21805;DHT22;11064;47.102;15.452;2023-02-03T17:41:25;5.30;99.90
21805;DHT22;11064;47.102;15.452;2023-02-03T17:43:54;5.20;99.90
21805;DHT22;11064;47.102;15.452;2023-02-03T17:46:23;5.10;99.90
21805;DHT22;11064;47.102;15.452;2023-02-03T17:48:50;5.00;99.90
21805;DHT22;11064;47.102;15.452;2023-02-03T17:51:18;4.90;99.90
21805;DHT22;11064;47.102;15.452;2023-02-03T17:53:46;4.90;99.90
21805;DHT22;11064;47.102;15.452;2023-02-03T17:56:23;4.90;99.90
21805;DHT22;11064;47.102;15.452;2023-02-03T17:58:58;4.80;99.90
21805;DHT22;11064;47.102;15.452;2023-02-03T18:01:24;4.80;99.90
21805;DHT22;11064;47.102;15.452;2023-02-03T18:03:59;4.70;99.90
21805;DHT22;11064;47.102;15.452;2023-02-03T18:06:27;4.80;99.90
21805;DHT22;11064;47.102;15.452;2023-02-03T18:08:55;4.70;99.90
21805;DHT22;11064;47.102;15.452;2023-02-03T18:11:27;4.70;99.90
21805;DHT22;11064;47.102;15.452;2023-02-03T18:13:54;4.60;99.90
21805;DHT22;11064;47.102;15.452;2023-02-03T18:16:24;4.60;99.90
21805;DHT22;11064;47.102;15.452;2023-02-03T18:18:52;4.60;99.90
21805;DHT22;11064;47.102;15.452;2023-02-03T18:21:19;4.60;99.90
21805;DHT22;11064;47.102;15.452;2023-02-03T18:23:47;4.60;99.90
21805;DHT22;11064;47.102;15.452;2023-02-03T18:26:14;4.60;99.90
21805;DHT22;11064;47.102;15.452;2023-02-03T18:28:40;4.60;99.90
21805;DHT22;11064;47.102;15.452;2023-02-03T18:31:09;4.70;99.90
21805;DHT22;11064;47.102;15.452;2023-02-03T18:33:36;4.70;99.90
21805;DHT22;11064;47.102;15.452;2023-02-03T18:36:04;4.70;99.90
21805;DHT22;11064;47.102;15.452;2023-02-03T18:38:32;4.70;99.90
21805;DHT22;11064;47.102;15.452;2023-02-03T18:41:13;4.70;99.90
21805;DHT22;11064;47.102;15.452;2023-02-03T18:43:40;4.60;99.90
21805;DHT22;11064;47.102;15.452;2023-02-03T18:46:12;4.60;99.90
21805;DHT22;11064;47.102;15.452;2023-02-03T18:48:39;4.60;99.90
21805;DHT22;11064;47.102;15.452;2023-02-03T18:51:12;4.50;99.90
21805;DHT22;11064;47.102;15.452;2023-02-03T18:53:40;4.40;99.90
21805;DHT22;11064;47.102;15.452;2023-02-03T18:56:09;4.40;99.90
21805;DHT22;11064;47.102;15.452;2023-02-03T18:58:38;4.40;99.90
21805;DHT22;11064;47.102;15.452;2023-02-03T19:01:04;4.40;99.90
21805;DHT22;11064;47.102;15.452;2023-02-03T19:03:32;4.40;99.90
21805;DHT22;11064;47.102;15.452;2023-02-03T19:05:59;4.40;99.90
21805;DHT22;11064;47.102;15.452;2023-02-03T19:08:26;4.30;99.90
21805;DHT22;11064;47.102;15.452;2023-02-03T19:10:53;4.30;99.90
21805;DHT22;11064;47.102;15.452;2023-02-03T19:13:20;4.30;99.90
21805;DHT22;11064;47.102;15.452;2023-02-03T19:15:47;4.30;99.90
21805;DHT22;11064;47.102;15.452;2023-02-03T19:18:14;4.30;99.90
21805;DHT22;11064;47.102;15.452;2023-02-03T19:20:42;4.30;99.90
21805;DHT22;11064;47.102;15.452;2023-02-03T19:23:10;4.20;99.90
21805;DHT22;11064;47.102;15.452;2023-02-03T19:25:37;4.30;99.90
21805;DHT22;11064;47.102;15.452;2023-02-03T19:28:04;4.30;99.90
21805;DHT22;11064;47.102;15.452;2023-02-03T19:30:34;4.30;99.90
21805;DHT22;11064;47.102;15.452;2023-02-03T19:33:01;4.30;99.90
21805;DHT22;11064;47.102;15.452;2023-02-03T19:35:27;4.40;99.90
21805;DHT22;11064;47.102;15.452;2023-02-03T19:37:56;4.50;99.90
21805;DHT22;11064;47.102;15.452;2023-02-03T19:40:23;4.60;99.90
21805;DHT22;11064;47.102;15.452;2023-02-03T19:42:49;4.50;99.90
21805;DHT22;11064;47.102;15.452;2023-02-03T19:45:15;4.60;99.90
21805;DHT22;11064;47.102;15.452;2023-02-03T19:47:41;4.60;99.90
21805;DHT22;11064;47.102;15.452;2023-02-03T19:50:10;4.60;99.90
21805;DHT22;11064;47.102;15.452;2023-02-03T19:52:38;4.70;99.90
21805;DHT22;11064;47.102;15.452;2023-02-03T19:55:04;4.80;99.90
21805;DHT22;11064;47.102;15.452;2023-02-03T19:57:30;4.70;99.90
21805;DHT22;11064;47.102;15.452;2023-02-03T19:59:57;4.70;99.90
21805;DHT22;11064;47.102;15.452;2023-02-03T20:02:23;4.70;99.90
21805;DHT22;11064;47.102;15.452;2023-02-03T20:04:51;4.80;99.90
21805;DHT22;11064;47.102;15.452;2023-02-03T20:07:18;4.80;99.90
21805;DHT22;11064;47.102;15.452;2023-02-03T20:09:45;4.90;99.90
21805;DHT22;11064;47.102;15.452;2023-02-03T20:12:12;5.00;99.90
21805;DHT22;11064;47.102;15.452;2023-02-03T20:14:38;5.10;99.90
21805;DHT22;11064;47.102;15.452;2023-02-03T20:17:06;5.10;99.90
21805;DHT22;11064;47.102;15.452;2023-02-03T20:19:33;5.10;99.90
21805;DHT22;11064;47.102;15.452;2023-02-03T20:22:01;5.10;99.90
21805;DHT22;11064;47.102;15.452;2023-02-03T20:24:27;5.10;99.90
21805;DHT22;11064;47.102;15.452;2023-02-03T20:26:53;5.20;99.90
21805;DHT22;11064;47.102;15.452;2023-02-03T20:29:20;5.30;99.90
21805;DHT22;11064;47.102;15.452;2023-02-03T20:31:46;5.30;99.90
21805;DHT22;11064;47.102;15.452;2023-02-03T20:34:14;5.30;99.90
21805;DHT22;11064;47.102;15.452;2023-02-03T20:36:40;5.40;99.90
21805;DHT22;11064;47.102;15.452;2023-02-03T20:39:17;5.40;99.90
21805;DHT22;11064;47.102;15.452;2023-02-03T20:41:47;5.30;99.90
21805;DHT22;11064;47.102;15.452;2023-02-03T20:44:13;5.30;99.90
21805;DHT22;11064;47.102;15.452;2023-02-03T20:46:40;5.20;99.90
21805;DHT22;11064;47.102;15.452;2023-02-03T20:49:15;5.10;99.90
21805;DHT22;11064;47.102;15.452;2023-02-03T20:51:43;5.00;99.90
21805;DHT22;11064;47.102;15.452;2023-02-03T20:54:19;5.00;99.90
21805;DHT22;11064;47.102;15.452;2023-02-03T20:56:46;4.90;99.90
21805;DHT22;11064;47.102;15.452;2023-02-03T20:59:17;4.90;99.90
21805;DHT22;11064;47.102;15.452;2023-02-03T21:01:47;4.90;99.90
21805;DHT22;11064;47.102;15.452;2023-02-03T21:04:17;4.90;99.90
21805;DHT22;11064;47.102;15.452;2023-02-03T21:07:15;4.80;99.90
21805;DHT22;11064;47.102;15.452;2023-02-03T21:09:42;4.80;99.90
21805;DHT22;11064;47.102;15.452;2023-02-03T21:12:11;4.80;99.90
21805;DHT22;11064;47.102;15.452;2023-02-03T21:14:43;4.80;99.90
21805;DHT22;11064;47.102;15.452;2023-02-03T21:17:24;4.70;99.90
21805;DHT22;11064;47.102;15.452;2023-02-03T21:19:52;4.60;99.90
21805;DHT22;11064;47.102;15.452;2023-02-03T21:24:50;4.40;99.90
21805;DHT22;11064;47.102;15.452;2023-02-03T21:27:31;4.40;99.90
21805;DHT22;11064;47.102;15.452;2023-02-03T21:30:01;4.40;99.90
21805;DHT22;11064;47.102;15.452;2023-02-03T21:32:39;4.30;99.90
21805;DHT22;11064;47.102;15.452;2023-02-03T21:35:35;4.20;99.90
21805;DHT22;11064;47.102;15.452;2023-02-03T21:38:40;4.10;99.90
21805;DHT22;11064;47.102;15.452;2023-02-03T21:41:00;4.10;99.90
21805;DHT22;11064;47.102;15.452;2023-02-03T21:43:28;4.00;99.90
21805;DHT22;11064;47.102;15.452;2023-02-03T21:45:55;3.90;99.90
21805;DHT22;11064;47.102;15.452;2023-02-03T21:48:26;3.90;99.90
21805;DHT22;11064;47.102;15.452;2023-02-03T21:50:55;3.80;99.90
21805;DHT22;11064;47.102;15.452;2023-02-03T21:53:26;3.90;99.90
21805;DHT22;11064;47.102;15.452;2023-02-03T21:55:53;3.90;99.90
21805;DHT22;11064;47.102;15.452;2023-02-03T21:58:27;3.90;99.90
21805;DHT22;11064;47.102;15.452;2023-02-03T22:00:59;4.00;99.90
21805;DHT22;11064;47.102;15.452;2023-02-03T22:03:39;3.90;99.90
21805;DHT22;11064;47.102;15.452;2023-02-03T22:08:47;3.90;99.90
21805;DHT22;11064;47.102;15.452;2023-02-03T22:11:15;3.80;99.90
21805;DHT22;11064;47.102;15.452;2023-02-03T22:13:41;3.80;99.90
21805;DHT22;11064;47.102;15.452;2023-02-03T22:16:08;3.80;99.90
21805;DHT22;11064;47.102;15.452;2023-02-03T22:18:34;3.70;99.90
21805;DHT22;11064;47.102;15.452;2023-02-03T22:21:00;3.80;99.90
21805;DHT22;11064;47.102;15.452;2023-02-03T22:23:28;3.80;99.90
21805;DHT22;11064;47.102;15.452;2023-02-03T22:25:54;3.80;99.90
21805;DHT22;11064;47.102;15.452;2023-02-03T22:28:20;4.00;99.90
21805;DHT22;11064;47.102;15.452;2023-02-03T22:30:45;4.10;99.90
21805;DHT22;11064;47.102;15.452;2023-02-03T22:33:12;4.10;99.90
21805;DHT22;11064;47.102;15.452;2023-02-03T22:35:38;4.10;99.90
21805;DHT22;11064;47.102;15.452;2023-02-03T22:38:04;4.10;99.90
21805;DHT22;11064;47.102;15.452;2023-02-03T22:40:30;4.00;99.90
21805;DHT22;11064;47.102;15.452;2023-02-03T22:42:55;4.00;99.90
21805;DHT22;11064;47.102;15.452;2023-02-03T22:45:21;3.90;99.90
21805;DHT22;11064;47.102;15.452;2023-02-03T22:47:47;3.80;99.90
21805;DHT22;11064;47.102;15.452;2023-02-03T22:50:14;3.80;99.90
21805;DHT22;11064;47.102;15.452;2023-02-03T22:52:40;3.60;99.90